Airfield :
LOGIN :

Register | Disclaimer

   EN    FR    IT 

 










Legend :    VFR   Marginal VFR   IFR   Intensive IFR   Very Intensive IFR
Visi :
Ceiling :
>= 8 km
>= 3000ft
5 to 8 km
1000 to 3000 ft
1500m to 5 km
500 to 1000 ft
800 to 1500m
200 to 500 ft
< 800m
< 200 ft
Symbols :   Thunderstorms  Fog  Heavy snow  Heavy precipitations  Wind > 20 kt
SIGMETs :     Misc.  Thunderstorms  Icing  Turbulence  Mountain Waves  Volcanic Ashes







- Airport Elevation : 200 ft


EBBL - Klein Brogel AB

CURRENT METAR :
  • 221555Z VRB02KT 9999 FEW300 20/03 Q1026 BLU BLU

EXPIRED METARs :
  • 221525Z VRB02KT 9999 FEW300 20/03 Q1026 BLU BLU
  • 221455Z 09003KT 9999 FEW300 20/02 Q1027 BLU BLU
  • 221425Z 07003KT 9999 FEW300 19/02 Q1027 BLU BLU
  • 221355Z 07004KT 9999 FEW300 19/03 Q1027 BLU BLU
  • 221325Z 11003KT 9999 FEW300 19/02 Q1028 BLU BLU
  • 221255Z VRB02KT 9999 FEW300 18/03 Q1028 BLU BLU

TAF TAF EBBL
Valid from the 22 at 10:00 until the 22 at 19:00 UTC


220841Z 2210/2219 VRB02KT 4000 BR SCT003
BECMG 2211/2212 9999 SKC
No reported NOTAMs for that airfield.



MET'MAP, your aeronautical weather chart ! - Copyright ORBIFLY December 2007 - Disclaimer

ORBIFLY MET'MAP TEAM :

Programming & Development : Alexandra Zaïnal
Concept & Development : Baudouin d'Aumeries
Co-Development & Prog : Marc-Olivier Méhu
Technical & hardware support : Manuel Goepfert

Contact : metmap@orbifly.com




SOURCES & CREDITS :

   NOAA